sensor_id;sensor_type;location;lat;lon;timestamp;P1;durP1;ratioP1;P2;durP2;ratioP2
24557;SDS011;12726;49.148;8.582;2022-08-24T00:01:12;4.07;;;2.10;;
24557;SDS011;12726;49.148;8.582;2022-08-24T00:04:00;2.33;;;1.88;;
24557;SDS011;12726;49.148;8.582;2022-08-24T00:06:45;2.92;;;2.10;;
24557;SDS011;12726;49.148;8.582;2022-08-24T00:09:31;4.22;;;2.55;;
24557;SDS011;12726;49.148;8.582;2022-08-24T00:12:16;3.70;;;2.30;;
24557;SDS011;12726;49.148;8.582;2022-08-24T00:15:02;3.03;;;2.22;;
24557;SDS011;12726;49.148;8.582;2022-08-24T00:17:51;4.10;;;1.90;;
24557;SDS011;12726;49.148;8.582;2022-08-24T00:20:37;3.78;;;2.40;;
24557;SDS011;12726;49.148;8.582;2022-08-24T00:23:23;5.28;;;2.53;;
24557;SDS011;12726;49.148;8.582;2022-08-24T00:26:09;5.93;;;2.50;;
24557;SDS011;12726;49.148;8.582;2022-08-24T00:28:55;5.18;;;2.50;;
24557;SDS011;12726;49.148;8.582;2022-08-24T00:31:44;4.93;;;2.60;;
24557;SDS011;12726;49.148;8.582;2022-08-24T00:34:34;4.38;;;2.03;;
24557;SDS011;12726;49.148;8.582;2022-08-24T00:37:19;5.95;;;2.10;;
24557;SDS011;12726;49.148;8.582;2022-08-24T00:40:08;5.25;;;2.80;;
24557;SDS011;12726;49.148;8.582;2022-08-24T00:42:56;3.53;;;2.20;;
24557;SDS011;12726;49.148;8.582;2022-08-24T00:45:47;3.85;;;1.80;;
24557;SDS011;12726;49.148;8.582;2022-08-24T00:48:41;4.40;;;2.20;;
24557;SDS011;12726;49.148;8.582;2022-08-24T00:51:36;4.57;;;2.10;;
24557;SDS011;12726;49.148;8.582;2022-08-24T00:54:24;5.25;;;2.63;;
24557;SDS011;12726;49.148;8.582;2022-08-24T00:57:14;5.97;;;2.53;;
24557;SDS011;12726;49.148;8.582;2022-08-24T01:00:04;5.60;;;2.10;;
24557;SDS011;12726;49.148;8.582;2022-08-24T01:02:54;4.40;;;2.42;;
24557;SDS011;12726;49.148;8.582;2022-08-24T01:05:44;4.20;;;2.28;;
24557;SDS011;12726;49.148;8.582;2022-08-24T01:08:32;3.22;;;2.30;;
24557;SDS011;12726;49.148;8.582;2022-08-24T01:11:19;3.38;;;2.45;;
24557;SDS011;12726;49.148;8.582;2022-08-24T01:14:09;2.90;;;2.20;;
24557;SDS011;12726;49.148;8.582;2022-08-24T01:16:55;3.50;;;2.00;;
24557;SDS011;12726;49.148;8.582;2022-08-24T01:20:00;3.85;;;2.47;;
24557;SDS011;12726;49.148;8.582;2022-08-24T01:22:53;4.93;;;2.20;;
24557;SDS011;12726;49.148;8.582;2022-08-24T01:25:47;5.93;;;2.40;;
24557;SDS011;12726;49.148;8.582;2022-08-24T01:28:36;4.95;;;2.67;;
24557;SDS011;12726;49.148;8.582;2022-08-24T01:31:23;4.78;;;2.20;;
24557;SDS011;12726;49.148;8.582;2022-08-24T01:34:09;3.40;;;2.40;;
24557;SDS011;12726;49.148;8.582;2022-08-24T01:36:55;7.97;;;2.78;;
24557;SDS011;12726;49.148;8.582;2022-08-24T01:39:44;4.13;;;2.13;;
24557;SDS011;12726;49.148;8.582;2022-08-24T01:42:34;7.78;;;2.75;;
24557;SDS011;12726;49.148;8.582;2022-08-24T01:45:20;5.32;;;2.67;;
24557;SDS011;12726;49.148;8.582;2022-08-24T01:48:05;4.70;;;2.47;;
24557;SDS011;12726;49.148;8.582;2022-08-24T01:50:51;5.30;;;2.47;;
24557;SDS011;12726;49.148;8.582;2022-08-24T01:53:37;2.95;;;2.30;;
24557;SDS011;12726;49.148;8.582;2022-08-24T01:56:23;5.07;;;2.17;;
24557;SDS011;12726;49.148;8.582;2022-08-24T01:59:10;6.22;;;2.53;;
24557;SDS011;12726;49.148;8.582;2022-08-24T02:01:57;4.28;;;2.10;;
24557;SDS011;12726;49.148;8.582;2022-08-24T02:04:46;4.10;;;2.60;;
24557;SDS011;12726;49.148;8.582;2022-08-24T02:07:32;3.97;;;2.45;;
24557;SDS011;12726;49.148;8.582;2022-08-24T02:10:18;3.97;;;2.20;;
24557;SDS011;12726;49.148;8.582;2022-08-24T02:13:04;3.60;;;2.22;;
24557;SDS011;12726;49.148;8.582;2022-08-24T02:15:51;4.88;;;3.00;;
24557;SDS011;12726;49.148;8.582;2022-08-24T02:18:37;4.63;;;2.40;;
24557;SDS011;12726;49.148;8.582;2022-08-24T02:21:23;4.05;;;2.28;;
24557;SDS011;12726;49.148;8.582;2022-08-24T02:24:09;7.40;;;3.20;;
24557;SDS011;12726;49.148;8.582;2022-08-24T02:26:56;3.75;;;2.50;;
24557;SDS011;12726;49.148;8.582;2022-08-24T02:29:42;2.67;;;2.05;;
24557;SDS011;12726;49.148;8.582;2022-08-24T02:32:30;4.35;;;2.45;;
24557;SDS011;12726;49.148;8.582;2022-08-24T02:35:16;5.97;;;2.42;;
24557;SDS011;12726;49.148;8.582;2022-08-24T02:38:01;3.22;;;2.28;;
24557;SDS011;12726;49.148;8.582;2022-08-24T02:40:47;2.55;;;2.25;;
24557;SDS011;12726;49.148;8.582;2022-08-24T02:43:32;5.05;;;2.20;;
24557;SDS011;12726;49.148;8.582;2022-08-24T02:46:18;4.43;;;2.10;;
24557;SDS011;12726;49.148;8.582;2022-08-24T02:49:06;7.38;;;2.20;;
24557;SDS011;12726;49.148;8.582;2022-08-24T02:51:52;2.83;;;2.03;;
24557;SDS011;12726;49.148;8.582;2022-08-24T02:54:38;3.72;;;2.13;;
24557;SDS011;12726;49.148;8.582;2022-08-24T02:57:24;5.00;;;2.20;;
24557;SDS011;12726;49.148;8.582;2022-08-24T03:00:11;4.30;;;2.28;;
24557;SDS011;12726;49.148;8.582;2022-08-24T03:02:59;3.88;;;2.00;;
24557;SDS011;12726;49.148;8.582;2022-08-24T03:05:47;2.30;;;2.00;;
24557;SDS011;12726;49.148;8.582;2022-08-24T03:08:32;3.40;;;1.85;;
24557;SDS011;12726;49.148;8.582;2022-08-24T03:11:18;1.98;;;1.67;;
24557;SDS011;12726;49.148;8.582;2022-08-24T03:14:03;3.08;;;1.77;;
24557;SDS011;12726;49.148;8.582;2022-08-24T03:16:49;1.83;;;1.60;;
24557;SDS011;12726;49.148;8.582;2022-08-24T03:19:35;4.40;;;1.67;;
24557;SDS011;12726;49.148;8.582;2022-08-24T03:22:22;4.43;;;1.88;;
24557;SDS011;12726;49.148;8.582;2022-08-24T03:25:07;3.60;;;1.75;;
24557;SDS011;12726;49.148;8.582;2022-08-24T03:27:54;3.85;;;2.03;;
24557;SDS011;12726;49.148;8.582;2022-08-24T03:30:40;3.05;;;2.03;;
24557;SDS011;12726;49.148;8.582;2022-08-24T03:33:26;3.40;;;2.20;;
24557;SDS011;12726;49.148;8.582;2022-08-24T03:36:11;5.63;;;1.77;;
24557;SDS011;12726;49.148;8.582;2022-08-24T03:38:58;3.40;;;2.53;;
24557;SDS011;12726;49.148;8.582;2022-08-24T03:41:44;6.55;;;2.10;;
24557;SDS011;12726;49.148;8.582;2022-08-24T03:44:30;2.30;;;2.10;;
24557;SDS011;12726;49.148;8.582;2022-08-24T03:47:15;4.05;;;2.15;;
24557;SDS011;12726;49.148;8.582;2022-08-24T03:50:02;2.92;;;1.83;;
24557;SDS011;12726;49.148;8.582;2022-08-24T03:52:50;2.72;;;2.00;;
24557;SDS011;12726;49.148;8.582;2022-08-24T03:55:37;2.92;;;2.00;;
24557;SDS011;12726;49.148;8.582;2022-08-24T03:58:23;3.15;;;1.98;;
24557;SDS011;12726;49.148;8.582;2022-08-24T04:01:08;5.30;;;2.03;;
24557;SDS011;12726;49.148;8.582;2022-08-24T04:03:55;4.07;;;2.30;;
24557;SDS011;12726;49.148;8.582;2022-08-24T04:06:41;3.05;;;2.20;;
24557;SDS011;12726;49.148;8.582;2022-08-24T04:09:29;3.70;;;1.70;;
24557;SDS011;12726;49.148;8.582;2022-08-24T04:12:16;3.22;;;1.73;;
24557;SDS011;12726;49.148;8.582;2022-08-24T04:15:01;5.05;;;2.50;;
24557;SDS011;12726;49.148;8.582;2022-08-24T04:17:47;3.95;;;1.90;;
24557;SDS011;12726;49.148;8.582;2022-08-24T04:20:36;4.68;;;2.20;;
24557;SDS011;12726;49.148;8.582;2022-08-24T04:23:22;6.13;;;2.15;;
24557;SDS011;12726;49.148;8.582;2022-08-24T04:26:08;3.28;;;2.20;;
24557;SDS011;12726;49.148;8.582;2022-08-24T04:28:55;6.57;;;2.53;;
24557;SDS011;12726;49.148;8.582;2022-08-24T04:31:41;2.20;;;1.95;;
24557;SDS011;12726;49.148;8.582;2022-08-24T04:34:27;5.45;;;2.00;;
24557;SDS011;12726;49.148;8.582;2022-08-24T04:37:13;2.95;;;1.90;;
24557;SDS011;12726;49.148;8.582;2022-08-24T04:40:00;3.10;;;2.10;;
24557;SDS011;12726;49.148;8.582;2022-08-24T04:42:46;4.55;;;2.20;;
24557;SDS011;12726;49.148;8.582;2022-08-24T04:45:36;4.47;;;2.08;;
24557;SDS011;12726;49.148;8.582;2022-08-24T04:48:22;4.45;;;2.10;;
24557;SDS011;12726;49.148;8.582;2022-08-24T04:51:08;2.70;;;2.30;;
24557;SDS011;12726;49.148;8.582;2022-08-24T04:53:55;5.63;;;2.30;;
24557;SDS011;12726;49.148;8.582;2022-08-24T04:56:40;2.33;;;1.80;;
24557;SDS011;12726;49.148;8.582;2022-08-24T04:59:26;3.13;;;1.90;;
24557;SDS011;12726;49.148;8.582;2022-08-24T05:02:13;3.03;;;1.85;;
24557;SDS011;12726;49.148;8.582;2022-08-24T05:04:58;4.18;;;1.80;;
24557;SDS011;12726;49.148;8.582;2022-08-24T05:07:44;3.67;;;1.83;;
24557;SDS011;12726;49.148;8.582;2022-08-24T05:10:29;3.38;;;2.20;;
24557;SDS011;12726;49.148;8.582;2022-08-24T05:13:15;2.50;;;1.83;;
24557;SDS011;12726;49.148;8.582;2022-08-24T05:16:04;3.20;;;2.05;;
24557;SDS011;12726;49.148;8.582;2022-08-24T05:18:52;3.08;;;2.00;;
24557;SDS011;12726;49.148;8.582;2022-08-24T05:21:38;3.05;;;2.17;;
24557;SDS011;12726;49.148;8.582;2022-08-24T05:24:27;8.43;;;2.20;;
24557;SDS011;12726;49.148;8.582;2022-08-24T05:27:12;5.82;;;2.22;;
24557;SDS011;12726;49.148;8.582;2022-08-24T05:29:58;5.70;;;2.08;;
24557;SDS011;12726;49.148;8.582;2022-08-24T05:32:44;3.72;;;2.00;;
24557;SDS011;12726;49.148;8.582;2022-08-24T05:35:35;4.55;;;2.20;;
24557;SDS011;12726;49.148;8.582;2022-08-24T05:38:21;2.67;;;1.65;;
24557;SDS011;12726;49.148;8.582;2022-08-24T05:41:08;4.82;;;1.90;;
24557;SDS011;12726;49.148;8.582;2022-08-24T05:43:54;5.95;;;1.80;;
24557;SDS011;12726;49.148;8.582;2022-08-24T05:46:39;2.63;;;1.92;;
24557;SDS011;12726;49.148;8.582;2022-08-24T05:49:26;3.58;;;1.92;;
24557;SDS011;12726;49.148;8.582;2022-08-24T05:52:13;2.88;;;1.70;;
24557;SDS011;12726;49.148;8.582;2022-08-24T05:55:01;6.50;;;1.95;;
24557;SDS011;12726;49.148;8.582;2022-08-24T05:57:48;6.07;;;1.73;;
24557;SDS011;12726;49.148;8.582;2022-08-24T06:00:35;5.00;;;1.77;;
24557;SDS011;12726;49.148;8.582;2022-08-24T06:03:21;6.35;;;1.70;;
24557;SDS011;12726;49.148;8.582;2022-08-24T06:06:07;4.60;;;1.80;;
24557;SDS011;12726;49.148;8.582;2022-08-24T06:08:56;2.45;;;1.58;;
24557;SDS011;12726;49.148;8.582;2022-08-24T06:11:43;3.80;;;1.83;;
24557;SDS011;12726;49.148;8.582;2022-08-24T06:14:29;4.13;;;1.70;;
24557;SDS011;12726;49.148;8.582;2022-08-24T06:17:15;5.47;;;2.13;;
24557;SDS011;12726;49.148;8.582;2022-08-24T06:20:00;1.95;;;1.60;;
24557;SDS011;12726;49.148;8.582;2022-08-24T06:22:48;3.30;;;1.83;;
24557;SDS011;12726;49.148;8.582;2022-08-24T06:25:35;3.97;;;1.80;;
24557;SDS011;12726;49.148;8.582;2022-08-24T06:28:40;3.50;;;1.77;;
24557;SDS011;12726;49.148;8.582;2022-08-24T06:31:26;3.15;;;1.75;;
24557;SDS011;12726;49.148;8.582;2022-08-24T06:34:13;3.67;;;1.70;;
24557;SDS011;12726;49.148;8.582;2022-08-24T06:37:01;3.35;;;1.92;;
24557;SDS011;12726;49.148;8.582;2022-08-24T06:39:49;4.80;;;1.70;;
24557;SDS011;12726;49.148;8.582;2022-08-24T06:42:37;2.78;;;1.55;;
24557;SDS011;12726;49.148;8.582;2022-08-24T06:45:22;3.90;;;1.73;;
24557;SDS011;12726;49.148;8.582;2022-08-24T06:48:07;3.38;;;1.83;;
24557;SDS011;12726;49.148;8.582;2022-08-24T06:50:53;3.22;;;1.65;;
24557;SDS011;12726;49.148;8.582;2022-08-24T06:53:39;3.15;;;1.95;;
24557;SDS011;12726;49.148;8.582;2022-08-24T06:56:28;5.60;;;1.90;;
24557;SDS011;12726;49.148;8.582;2022-08-24T06:59:15;3.08;;;1.63;;
24557;SDS011;12726;49.148;8.582;2022-08-24T07:02:01;6.00;;;1.73;;
24557;SDS011;12726;49.148;8.582;2022-08-24T07:04:48;5.93;;;1.70;;
24557;SDS011;12726;49.148;8.582;2022-08-24T07:07:33;6.78;;;1.65;;
24557;SDS011;12726;49.148;8.582;2022-08-24T07:10:19;7.68;;;2.08;;
24557;SDS011;12726;49.148;8.582;2022-08-24T07:13:05;8.10;;;2.00;;
24557;SDS011;12726;49.148;8.582;2022-08-24T07:15:52;3.95;;;1.70;;
24557;SDS011;12726;49.148;8.582;2022-08-24T07:18:38;5.15;;;1.60;;
24557;SDS011;12726;49.148;8.582;2022-08-24T07:21:24;2.60;;;1.50;;
24557;SDS011;12726;49.148;8.582;2022-08-24T07:24:11;6.28;;;1.73;;
24557;SDS011;12726;49.148;8.582;2022-08-24T07:26:56;2.60;;;1.40;;
24557;SDS011;12726;49.148;8.582;2022-08-24T07:29:42;3.72;;;1.60;;
24557;SDS011;12726;49.148;8.582;2022-08-24T07:32:29;7.68;;;1.67;;
24557;SDS011;12726;49.148;8.582;2022-08-24T07:35:15;5.07;;;1.60;;
24557;SDS011;12726;49.148;8.582;2022-08-24T07:38:01;4.72;;;1.75;;
24557;SDS011;12726;49.148;8.582;2022-08-24T07:40:49;9.82;;;1.77;;
24557;SDS011;12726;49.148;8.582;2022-08-24T07:43:35;4.97;;;1.80;;
24557;SDS011;12726;49.148;8.582;2022-08-24T07:46:21;3.13;;;1.70;;
24557;SDS011;12726;49.148;8.582;2022-08-24T07:49:08;3.83;;;1.65;;
24557;SDS011;12726;49.148;8.582;2022-08-24T07:51:55;3.25;;;1.42;;
24557;SDS011;12726;49.148;8.582;2022-08-24T07:54:40;4.57;;;1.85;;
24557;SDS011;12726;49.148;8.582;2022-08-24T07:57:26;7.68;;;1.38;;
24557;SDS011;12726;49.148;8.582;2022-08-24T08:00:12;3.30;;;1.40;;
24557;SDS011;12726;49.148;8.582;2022-08-24T08:02:59;4.22;;;1.58;;
24557;SDS011;12726;49.148;8.582;2022-08-24T08:05:49;7.88;;;2.20;;
24557;SDS011;12726;49.148;8.582;2022-08-24T08:08:40;6.82;;;1.48;;
24557;SDS011;12726;49.148;8.582;2022-08-24T08:11:26;3.90;;;1.40;;
24557;SDS011;12726;49.148;8.582;2022-08-24T08:14:12;4.88;;;1.80;;
24557;SDS011;12726;49.148;8.582;2022-08-24T08:16:58;6.90;;;2.20;;
24557;SDS011;12726;49.148;8.582;2022-08-24T08:19:44;7.72;;;1.70;;
24557;SDS011;12726;49.148;8.582;2022-08-24T08:22:33;3.17;;;1.60;;
24557;SDS011;12726;49.148;8.582;2022-08-24T08:25:37;6.53;;;1.63;;
24557;SDS011;12726;49.148;8.582;2022-08-24T08:28:22;10.60;;;1.60;;
24557;SDS011;12726;49.148;8.582;2022-08-24T08:31:09;6.25;;;1.80;;
24557;SDS011;12726;49.148;8.582;2022-08-24T08:33:57;11.55;;;2.00;;
24557;SDS011;12726;49.148;8.582;2022-08-24T08:36:44;8.73;;;1.83;;
24557;SDS011;12726;49.148;8.582;2022-08-24T08:39:32;6.53;;;2.20;;
24557;SDS011;12726;49.148;8.582;2022-08-24T08:42:29;7.32;;;1.55;;
24557;SDS011;12726;49.148;8.582;2022-08-24T08:45:26;6.88;;;1.90;;
24557;SDS011;12726;49.148;8.582;2022-08-24T08:48:26;11.70;;;1.92;;
24557;SDS011;12726;49.148;8.582;2022-08-24T08:55:03;6.43;;;1.70;;
24557;SDS011;12726;49.148;8.582;2022-08-24T08:58:11;5.20;;;1.38;;
24557;SDS011;12726;49.148;8.582;2022-08-24T09:01:08;7.10;;;1.45;;
24557;SDS011;12726;49.148;8.582;2022-08-24T09:04:03;7.60;;;1.38;;
24557;SDS011;12726;49.148;8.582;2022-08-24T09:07:02;5.93;;;1.40;;
24557;SDS011;12726;49.148;8.582;2022-08-24T09:10:06;5.35;;;1.40;;
24557;SDS011;12726;49.148;8.582;2022-08-24T09:13:10;2.55;;;1.50;;
24557;SDS011;12726;49.148;8.582;2022-08-24T09:16:09;3.38;;;1.33;;
24557;SDS011;12726;49.148;8.582;2022-08-24T09:19:07;7.18;;;1.35;;
24557;SDS011;12726;49.148;8.582;2022-08-24T09:22:09;2.22;;;1.20;;
24557;SDS011;12726;49.148;8.582;2022-08-24T09:28:05;4.97;;;1.40;;
24557;SDS011;12726;49.148;8.582;2022-08-24T09:34:25;3.53;;;1.30;;
24557;SDS011;12726;49.148;8.582;2022-08-24T09:37:28;4.32;;;0.90;;
24557;SDS011;12726;49.148;8.582;2022-08-24T09:40:22;4.03;;;1.13;;
24557;SDS011;12726;49.148;8.582;2022-08-24T09:50:03;4.03;;;1.20;;
24557;SDS011;12726;49.148;8.582;2022-08-24T09:56:35;1.95;;;1.08;;
24557;SDS011;12726;49.148;8.582;2022-08-24T09:59:49;1.90;;;1.10;;
24557;SDS011;12726;49.148;8.582;2022-08-24T10:02:48;3.65;;;1.23;;
24557;SDS011;12726;49.148;8.582;2022-08-24T10:05:51;2.00;;;1.30;;
24557;SDS011;12726;49.148;8.582;2022-08-24T10:12:12;1.67;;;0.98;;
24557;SDS011;12726;49.148;8.582;2022-08-24T10:15:06;2.20;;;1.20;;
24557;SDS011;12726;49.148;8.582;2022-08-24T10:18:05;2.05;;;1.48;;
24557;SDS011;12726;49.148;8.582;2022-08-24T10:21:17;3.78;;;1.30;;
24557;SDS011;12726;49.148;8.582;2022-08-24T10:24:11;1.77;;;1.00;;
24557;SDS011;12726;49.148;8.582;2022-08-24T10:27:18;6.65;;;1.27;;
24557;SDS011;12726;49.148;8.582;2022-08-24T10:33:43;2.35;;;1.25;;
24557;SDS011;12726;49.148;8.582;2022-08-24T10:36:43;3.03;;;1.35;;
24557;SDS011;12726;49.148;8.582;2022-08-24T10:39:49;3.17;;;1.00;;
24557;SDS011;12726;49.148;8.582;2022-08-24T10:43:11;2.85;;;1.25;;
24557;SDS011;12726;49.148;8.582;2022-08-24T10:46:26;5.68;;;1.27;;
24557;SDS011;12726;49.148;8.582;2022-08-24T10:49:43;1.33;;;1.05;;
24557;SDS011;12726;49.148;8.582;2022-08-24T10:56:06;2.03;;;1.20;;
24557;SDS011;12726;49.148;8.582;2022-08-24T10:59:03;2.08;;;1.38;;
24557;SDS011;12726;49.148;8.582;2022-08-24T11:02:05;5.30;;;1.27;;
24557;SDS011;12726;49.148;8.582;2022-08-24T11:04:54;2.45;;;1.00;;
24557;SDS011;12726;49.148;8.582;2022-08-24T11:07:53;4.82;;;1.35;;
24557;SDS011;12726;49.148;8.582;2022-08-24T11:10:41;5.80;;;1.40;;
24557;SDS011;12726;49.148;8.582;2022-08-24T11:13:26;4.57;;;1.35;;
24557;SDS011;12726;49.148;8.582;2022-08-24T11:16:14;2.83;;;1.42;;
24557;SDS011;12726;49.148;8.582;2022-08-24T11:19:09;3.40;;;1.52;;
24557;SDS011;12726;49.148;8.582;2022-08-24T11:21:58;3.40;;;1.30;;
24557;SDS011;12726;49.148;8.582;2022-08-24T11:24:45;3.38;;;1.30;;
24557;SDS011;12726;49.148;8.582;2022-08-24T11:27:34;3.60;;;1.30;;
24557;SDS011;12726;49.148;8.582;2022-08-24T11:30:23;2.80;;;1.42;;
24557;SDS011;12726;49.148;8.582;2022-08-24T11:33:24;6.28;;;1.60;;
24557;SDS011;12726;49.148;8.582;2022-08-24T11:36:14;3.10;;;1.65;;
24557;SDS011;12726;49.148;8.582;2022-08-24T11:39:13;3.00;;;1.58;;
24557;SDS011;12726;49.148;8.582;2022-08-24T11:44:56;1.88;;;1.40;;
24557;SDS011;12726;49.148;8.582;2022-08-24T11:47:50;3.00;;;1.40;;
24557;SDS011;12726;49.148;8.582;2022-08-24T11:50:50;3.38;;;1.35;;
24557;SDS011;12726;49.148;8.582;2022-08-24T11:53:41;5.40;;;1.70;;
24557;SDS011;12726;49.148;8.582;2022-08-24T11:56:37;4.60;;;1.38;;
24557;SDS011;12726;49.148;8.582;2022-08-24T11:59:32;3.70;;;1.50;;
24557;SDS011;12726;49.148;8.582;2022-08-24T12:02:30;2.97;;;1.88;;
24557;SDS011;12726;49.148;8.582;2022-08-24T12:05:22;3.22;;;1.70;;
24557;SDS011;12726;49.148;8.582;2022-08-24T12:08:16;5.15;;;1.70;;
24557;SDS011;12726;49.148;8.582;2022-08-24T12:11:09;3.05;;;1.90;;
24557;SDS011;12726;49.148;8.582;2022-08-24T12:14:02;2.20;;;1.83;;
24557;SDS011;12726;49.148;8.582;2022-08-24T12:16:54;4.03;;;1.77;;
24557;SDS011;12726;49.148;8.582;2022-08-24T12:19:46;3.67;;;1.50;;
24557;SDS011;12726;49.148;8.582;2022-08-24T12:22:33;2.35;;;1.65;;
24557;SDS011;12726;49.148;8.582;2022-08-24T12:25:22;3.35;;;1.80;;
24557;SDS011;12726;49.148;8.582;2022-08-24T12:28:30;4.68;;;1.70;;
24557;SDS011;12726;49.148;8.582;2022-08-24T12:31:25;2.67;;;1.67;;
24557;SDS011;12726;49.148;8.582;2022-08-24T12:34:21;2.22;;;1.60;;
24557;SDS011;12726;49.148;8.582;2022-08-24T12:37:14;6.25;;;1.80;;
24557;SDS011;12726;49.148;8.582;2022-08-24T12:40:07;4.82;;;1.50;;
24557;SDS011;12726;49.148;8.582;2022-08-24T12:43:09;5.60;;;1.83;;
24557;SDS011;12726;49.148;8.582;2022-08-24T12:45:59;1.80;;;1.40;;
24557;SDS011;12726;49.148;8.582;2022-08-24T12:48:46;1.92;;;1.52;;
24557;SDS011;12726;49.148;8.582;2022-08-24T12:51:39;4.07;;;1.40;;
24557;SDS011;12726;49.148;8.582;2022-08-24T12:54:42;2.95;;;1.73;;
24557;SDS011;12726;49.148;8.582;2022-08-24T12:57:40;4.80;;;1.58;;
24557;SDS011;12726;49.148;8.582;2022-08-24T13:00:36;5.35;;;1.73;;
24557;SDS011;12726;49.148;8.582;2022-08-24T13:03:29;4.40;;;1.30;;
24557;SDS011;12726;49.148;8.582;2022-08-24T13:06:19;3.85;;;1.52;;
24557;SDS011;12726;49.148;8.582;2022-08-24T13:09:13;4.60;;;1.25;;
24557;SDS011;12726;49.148;8.582;2022-08-24T13:16:01;2.63;;;1.55;;
24557;SDS011;12726;49.148;8.582;2022-08-24T13:21:40;2.58;;;1.33;;
24557;SDS011;12726;49.148;8.582;2022-08-24T13:37:24;3.13;;;1.40;;
24557;SDS011;12726;49.148;8.582;2022-08-24T13:40:13;6.13;;;1.35;;
24557;SDS011;12726;49.148;8.582;2022-08-24T13:45:58;1.77;;;1.52;;
24557;SDS011;12726;49.148;8.582;2022-08-24T13:48:56;3.75;;;1.67;;
24557;SDS011;12726;49.148;8.582;2022-08-24T13:51:46;3.42;;;1.30;;
24557;SDS011;12726;49.148;8.582;2022-08-24T13:54:40;1.80;;;1.50;;
24557;SDS011;12726;49.148;8.582;2022-08-24T13:57:36;2.35;;;1.40;;
24557;SDS011;12726;49.148;8.582;2022-08-24T14:06:53;4.32;;;1.40;;
24557;SDS011;12726;49.148;8.582;2022-08-24T14:09:45;3.40;;;1.50;;
24557;SDS011;12726;49.148;8.582;2022-08-24T14:12:48;4.95;;;1.42;;
24557;SDS011;12726;49.148;8.582;2022-08-24T14:15:45;3.22;;;1.25;;
24557;SDS011;12726;49.148;8.582;2022-08-24T14:19:00;3.60;;;1.70;;
24557;SDS011;12726;49.148;8.582;2022-08-24T14:21:55;2.38;;;1.23;;
24557;SDS011;12726;49.148;8.582;2022-08-24T14:24:47;2.40;;;1.05;;
24557;SDS011;12726;49.148;8.582;2022-08-24T14:27:46;2.80;;;1.60;;
24557;SDS011;12726;49.148;8.582;2022-08-24T14:30:38;1.73;;;1.30;;
24557;SDS011;12726;49.148;8.582;2022-08-24T14:33:27;2.90;;;1.60;;
24557;SDS011;12726;49.148;8.582;2022-08-24T14:36:19;3.43;;;1.20;;
24557;SDS011;12726;49.148;8.582;2022-08-24T14:39:11;5.68;;;1.70;;
24557;SDS011;12726;49.148;8.582;2022-08-24T14:42:13;3.00;;;1.38;;
24557;SDS011;12726;49.148;8.582;2022-08-24T14:45:02;6.53;;;1.67;;
24557;SDS011;12726;49.148;8.582;2022-08-24T14:47:55;2.83;;;1.20;;
24557;SDS011;12726;49.148;8.582;2022-08-24T14:50:49;3.35;;;1.17;;
24557;SDS011;12726;49.148;8.582;2022-08-24T14:53:50;4.85;;;1.42;;
24557;SDS011;12726;49.148;8.582;2022-08-24T14:56:48;7.43;;;1.38;;
24557;SDS011;12726;49.148;8.582;2022-08-24T14:59:44;4.10;;;1.13;;
24557;SDS011;12726;49.148;8.582;2022-08-24T15:02:50;5.70;;;1.30;;
24557;SDS011;12726;49.148;8.582;2022-08-24T15:06:01;3.22;;;1.38;;
24557;SDS011;12726;49.148;8.582;2022-08-24T15:09:06;3.47;;;1.70;;
24557;SDS011;12726;49.148;8.582;2022-08-24T15:11:57;2.80;;;1.30;;
24557;SDS011;12726;49.148;8.582;2022-08-24T15:14:50;2.65;;;1.58;;
24557;SDS011;12726;49.148;8.582;2022-08-24T15:17:41;2.75;;;1.50;;
24557;SDS011;12726;49.148;8.582;2022-08-24T15:20:39;2.67;;;1.42;;
24557;SDS011;12726;49.148;8.582;2022-08-24T15:23:38;1.58;;;1.10;;
24557;SDS011;12726;49.148;8.582;2022-08-24T15:26:44;6.43;;;1.20;;
24557;SDS011;12726;49.148;8.582;2022-08-24T15:29:52;5.60;;;1.10;;
24557;SDS011;12726;49.148;8.582;2022-08-24T15:32:40;3.17;;;1.20;;
24557;SDS011;12726;49.148;8.582;2022-08-24T15:35:33;4.43;;;1.33;;
24557;SDS011;12726;49.148;8.582;2022-08-24T15:38:21;3.25;;;1.13;;
24557;SDS011;12726;49.148;8.582;2022-08-24T15:41:09;3.70;;;1.38;;
24557;SDS011;12726;49.148;8.582;2022-08-24T15:44:02;3.50;;;1.20;;
24557;SDS011;12726;49.148;8.582;2022-08-24T15:46:51;2.33;;;1.23;;
24557;SDS011;12726;49.148;8.582;2022-08-24T15:49:44;3.10;;;0.98;;
24557;SDS011;12726;49.148;8.582;2022-08-24T15:52:36;3.60;;;1.23;;
24557;SDS011;12726;49.148;8.582;2022-08-24T15:55:33;3.72;;;1.40;;
24557;SDS011;12726;49.148;8.582;2022-08-24T15:58:29;2.67;;;1.00;;
24557;SDS011;12726;49.148;8.582;2022-08-24T16:01:21;2.97;;;1.08;;
24557;SDS011;12726;49.148;8.582;2022-08-24T16:04:37;3.25;;;1.13;;
24557;SDS011;12726;49.148;8.582;2022-08-24T16:07:29;4.10;;;1.20;;
24557;SDS011;12726;49.148;8.582;2022-08-24T16:10:30;1.83;;;0.98;;
24557;SDS011;12726;49.148;8.582;2022-08-24T16:13:20;2.28;;;1.02;;
24557;SDS011;12726;49.148;8.582;2022-08-24T16:16:12;4.95;;;1.10;;
24557;SDS011;12726;49.148;8.582;2022-08-24T16:19:01;2.30;;;0.98;;
24557;SDS011;12726;49.148;8.582;2022-08-24T16:21:53;2.45;;;1.05;;
24557;SDS011;12726;49.148;8.582;2022-08-24T16:24:42;3.80;;;1.00;;
24557;SDS011;12726;49.148;8.582;2022-08-24T16:27:35;2.55;;;1.00;;
24557;SDS011;12726;49.148;8.582;2022-08-24T16:30:42;3.03;;;1.38;;
24557;SDS011;12726;49.148;8.582;2022-08-24T16:33:35;2.03;;;1.13;;
24557;SDS011;12726;49.148;8.582;2022-08-24T16:39:10;1.85;;;0.93;;
24557;SDS011;12726;49.148;8.582;2022-08-24T16:41:57;4.50;;;1.05;;
24557;SDS011;12726;49.148;8.582;2022-08-24T16:44:45;1.83;;;1.08;;
24557;SDS011;12726;49.148;8.582;2022-08-24T16:47:30;1.13;;;0.80;;
24557;SDS011;12726;49.148;8.582;2022-08-24T16:50:18;1.30;;;0.95;;
24557;SDS011;12726;49.148;8.582;2022-08-24T16:53:05;2.30;;;1.30;;
24557;SDS011;12726;49.148;8.582;2022-08-24T16:55:52;1.83;;;1.20;;
24557;SDS011;12726;49.148;8.582;2022-08-24T16:58:38;3.20;;;1.30;;
24557;SDS011;12726;49.148;8.582;2022-08-24T17:01:24;1.77;;;1.13;;
24557;SDS011;12726;49.148;8.582;2022-08-24T17:04:10;2.88;;;0.90;;
24557;SDS011;12726;49.148;8.582;2022-08-24T17:06:55;1.85;;;1.02;;
24557;SDS011;12726;49.148;8.582;2022-08-24T17:09:43;1.83;;;1.05;;
24557;SDS011;12726;49.148;8.582;2022-08-24T17:12:31;1.52;;;1.10;;
24557;SDS011;12726;49.148;8.582;2022-08-24T17:15:19;2.25;;;1.00;;
24557;SDS011;12726;49.148;8.582;2022-08-24T17:18:06;2.65;;;1.30;;
24557;SDS011;12726;49.148;8.582;2022-08-24T17:20:53;3.28;;;1.33;;
24557;SDS011;12726;49.148;8.582;2022-08-24T17:23:39;2.78;;;0.88;;
24557;SDS011;12726;49.148;8.582;2022-08-24T17:26:27;3.55;;;1.30;;
24557;SDS011;12726;49.148;8.582;2022-08-24T17:29:15;5.80;;;1.10;;
24557;SDS011;12726;49.148;8.582;2022-08-24T17:32:02;2.83;;;1.20;;
24557;SDS011;12726;49.148;8.582;2022-08-24T17:34:48;2.60;;;1.20;;
24557;SDS011;12726;49.148;8.582;2022-08-24T17:37:33;3.20;;;1.00;;
24557;SDS011;12726;49.148;8.582;2022-08-24T17:40:20;6.05;;;1.40;;
24557;SDS011;12726;49.148;8.582;2022-08-24T17:43:09;1.70;;;1.20;;
24557;SDS011;12726;49.148;8.582;2022-08-24T17:45:55;2.20;;;1.20;;
24557;SDS011;12726;49.148;8.582;2022-08-24T17:48:43;2.63;;;1.10;;
24557;SDS011;12726;49.148;8.582;2022-08-24T17:51:29;4.43;;;1.02;;
24557;SDS011;12726;49.148;8.582;2022-08-24T17:54:15;3.28;;;1.08;;
24557;SDS011;12726;49.148;8.582;2022-08-24T17:57:04;4.70;;;1.10;;
24557;SDS011;12726;49.148;8.582;2022-08-24T17:59:51;3.65;;;1.30;;
24557;SDS011;12726;49.148;8.582;2022-08-24T18:02:37;2.45;;;1.15;;
24557;SDS011;12726;49.148;8.582;2022-08-24T18:05:24;6.43;;;1.30;;
24557;SDS011;12726;49.148;8.582;2022-08-24T18:08:09;4.30;;;1.50;;
24557;SDS011;12726;49.148;8.582;2022-08-24T18:10:55;1.73;;;0.90;;
24557;SDS011;12726;49.148;8.582;2022-08-24T18:13:41;2.08;;;1.10;;